createdAt,value
2018-04-19T00:06:48.282Z,18.16
2018-04-19T00:09:16.428Z,18.19
2018-04-19T00:11:44.575Z,18.16
2018-04-19T00:14:12.708Z,18.15
2018-04-19T00:16:40.850Z,18.16
2018-04-19T00:19:08.968Z,18.15
2018-04-19T00:21:37.095Z,18.13
2018-04-19T00:24:05.257Z,18.10
2018-04-19T00:26:33.384Z,18.06
2018-04-19T00:29:01.534Z,18.01
2018-04-19T00:31:29.665Z,17.98
2018-04-19T00:33:57.816Z,17.92
2018-04-19T00:36:25.932Z,17.90
2018-04-19T00:38:54.077Z,17.89
2018-04-19T00:41:22.189Z,17.83
2018-04-19T00:43:50.323Z,17.76
2018-04-19T00:46:18.484Z,17.70
2018-04-19T00:48:46.598Z,17.55
2018-04-19T00:51:14.726Z,17.51
2018-04-19T00:53:42.864Z,17.65
2018-04-19T00:56:11.010Z,17.58
2018-04-19T00:58:39.161Z,17.65
2018-04-19T01:01:07.299Z,17.69
2018-04-19T01:03:35.422Z,17.65
2018-04-19T01:06:03.573Z,17.63
2018-04-19T01:08:31.719Z,17.73
2018-04-19T01:10:59.844Z,17.71
2018-04-19T01:13:27.979Z,17.69
2018-04-19T01:15:56.131Z,17.74
2018-04-19T01:18:24.268Z,17.74
2018-04-19T01:20:52.390Z,17.75
2018-04-19T01:23:20.873Z,17.77
2018-04-19T01:25:49.017Z,17.78
2018-04-19T01:28:17.146Z,17.75
2018-04-19T01:30:45.301Z,17.73
2018-04-19T01:33:13.412Z,17.77
2018-04-19T01:35:53.355Z,17.73
2018-04-19T01:38:21.465Z,17.78
2018-04-19T01:40:49.606Z,17.71
2018-04-19T01:43:17.798Z,17.66
2018-04-19T01:45:45.951Z,17.68
2018-04-19T01:48:14.100Z,17.56
2018-04-19T01:50:42.223Z,17.64
2018-04-19T01:53:10.350Z,17.64
2018-04-19T01:55:38.471Z,17.62
2018-04-19T01:58:06.597Z,17.63
2018-04-19T02:00:34.744Z,17.62
2018-04-19T02:03:02.871Z,17.62
2018-04-19T02:05:31.007Z,17.56
2018-04-19T02:07:59.183Z,17.46
2018-04-19T02:10:27.268Z,17.48
2018-04-19T02:12:55.419Z,17.47
2018-04-19T02:15:23.786Z,17.45
2018-04-19T02:17:53.201Z,17.42
2018-04-19T02:20:21.315Z,17.38
2018-04-19T02:22:49.440Z,17.44
2018-04-19T02:25:17.580Z,17.45
2018-04-19T02:27:45.685Z,17.45
2018-04-19T02:30:13.806Z,17.41
2018-04-19T02:32:41.962Z,17.40
2018-04-19T02:35:10.232Z,17.37
2018-04-19T02:37:38.366Z,17.38
2018-04-19T02:40:06.476Z,17.37
2018-04-19T02:42:34.621Z,17.31
2018-04-19T02:45:02.775Z,17.33
2018-04-19T02:47:30.914Z,17.34
2018-04-19T02:49:59.045Z,17.33
2018-04-19T02:52:27.194Z,17.31
2018-04-19T02:54:55.317Z,17.26
2018-04-19T02:57:23.450Z,17.37
2018-04-19T02:59:51.560Z,17.34
2018-04-19T03:02:19.718Z,17.21
2018-04-19T03:04:47.855Z,17.22
2018-04-19T03:07:15.991Z,17.14
2018-04-19T03:09:44.104Z,17.16
2018-04-19T03:12:12.233Z,17.19
2018-04-19T03:14:43.753Z,17.19
2018-04-19T03:17:11.866Z,17.12
2018-04-19T03:19:40.117Z,17.13
2018-04-19T03:22:08.258Z,17.11
2018-04-19T03:24:36.378Z,17.11
2018-04-19T03:27:04.528Z,17.13
2018-04-19T03:29:32.678Z,17.09
2018-04-19T03:32:00.818Z,16.99
2018-04-19T03:34:28.946Z,16.94
2018-04-19T03:36:57.070Z,16.98
2018-04-19T03:39:25.207Z,16.77
2018-04-19T03:41:53.382Z,16.82
2018-04-19T03:44:21.530Z,16.83
2018-04-19T03:46:49.674Z,16.77
2018-04-19T03:49:17.823Z,16.80
2018-04-19T03:51:45.984Z,16.84
2018-04-19T03:54:14.121Z,16.81
2018-04-19T03:56:42.247Z,16.76
2018-04-19T03:59:10.377Z,16.80
2018-04-19T04:01:38.516Z,16.78
2018-04-19T04:04:06.647Z,16.74
2018-04-19T04:06:34.789Z,16.73
2018-04-19T04:09:02.956Z,16.64
2018-04-19T04:11:31.119Z,16.59
2018-04-19T04:14:02.503Z,16.60
2018-04-19T04:16:42.563Z,16.55
2018-04-19T04:19:22.553Z,16.56
2018-04-19T04:22:02.509Z,16.53
2018-04-19T04:24:30.628Z,16.53
2018-04-19T04:26:58.770Z,16.50
2018-04-19T04:29:27.848Z,16.49
2018-04-19T04:31:55.981Z,16.46
2018-04-19T04:34:24.120Z,16.41
2018-04-19T04:36:52.410Z,16.43
2018-04-19T04:39:20.558Z,16.80
2018-04-19T04:41:48.710Z,16.48
2018-04-19T04:44:16.841Z,16.35
2018-04-19T04:46:44.994Z,16.34
2018-04-19T04:49:13.116Z,16.28
2018-04-19T04:51:41.243Z,16.26
2018-04-19T04:54:09.399Z,16.25
2018-04-19T04:56:37.513Z,16.21
2018-04-19T04:59:05.669Z,16.20
2018-04-19T05:01:33.782Z,16.17
2018-04-19T05:04:01.921Z,16.17
2018-04-19T05:06:30.059Z,16.18
2018-04-19T05:08:58.187Z,16.19
2018-04-19T05:11:26.334Z,16.18
2018-04-19T05:13:54.466Z,16.23
2018-04-19T05:16:22.581Z,16.23
2018-04-19T05:18:50.754Z,16.17
2018-04-19T05:21:18.883Z,16.22
2018-04-19T05:23:47.034Z,16.30
2018-04-19T05:26:15.215Z,16.26
2018-04-19T05:28:43.299Z,16.32
2018-04-19T05:31:13.339Z,16.35
2018-04-19T05:33:41.489Z,16.39
2018-04-19T05:36:09.639Z,16.45
2018-04-19T05:38:37.789Z,16.51
2018-04-19T05:41:05.905Z,16.60
2018-04-19T05:43:34.080Z,16.63
2018-04-19T05:46:02.223Z,16.68
2018-04-19T05:48:30.350Z,16.74
2018-04-19T05:50:58.503Z,16.74
2018-04-19T05:53:26.648Z,16.84
2018-04-19T05:55:54.779Z,16.93
2018-04-19T05:58:22.949Z,17.05
2018-04-19T06:00:51.076Z,17.14
2018-04-19T06:03:19.196Z,17.22
2018-04-19T06:05:50.382Z,17.30
2018-04-19T06:08:18.524Z,17.43
2018-04-19T06:10:46.639Z,17.50
2018-04-19T06:13:14.794Z,17.57
2018-04-19T06:15:42.932Z,17.61
2018-04-19T06:18:11.074Z,17.64
2018-04-19T06:20:39.214Z,17.72
2018-04-19T06:23:07.357Z,17.74
2018-04-19T06:25:35.488Z,17.87
2018-04-19T06:28:03.618Z,17.95
2018-04-19T06:30:31.762Z,18.02
2018-04-19T06:32:59.894Z,18.11
2018-04-19T06:35:28.131Z,18.29
2018-04-19T06:38:00.109Z,18.52
2018-04-19T06:40:28.231Z,18.68
2018-04-19T06:42:56.846Z,18.83
2018-04-19T06:45:24.952Z,19.03
2018-04-19T06:47:53.100Z,19.14
2018-04-19T06:50:21.396Z,19.28
2018-04-19T06:52:49.540Z,19.49
2018-04-19T06:55:17.652Z,19.64
2018-04-19T06:57:45.805Z,19.69
2018-04-19T07:00:13.962Z,19.79
2018-04-19T07:02:42.077Z,19.83
2018-04-19T07:05:10.239Z,19.92
2018-04-19T07:07:38.377Z,20.04
2018-04-19T07:10:06.496Z,20.26
2018-04-19T07:12:34.625Z,20.40
2018-04-19T07:15:02.771Z,20.53
2018-04-19T07:17:30.915Z,20.68
2018-04-19T07:19:59.076Z,21.01
2018-04-19T07:22:27.204Z,21.42
2018-04-19T07:24:55.334Z,21.48
2018-04-19T07:27:23.490Z,21.43
2018-04-19T07:29:51.635Z,21.43
2018-04-19T07:32:19.801Z,21.76
2018-04-19T07:34:47.919Z,21.82
2018-04-19T07:37:16.057Z,22.12
2018-04-19T07:39:44.210Z,22.30
2018-04-19T07:42:12.338Z,22.39
2018-04-19T07:44:40.495Z,22.52
2018-04-19T07:47:08.600Z,22.54
2018-04-19T07:49:36.742Z,22.71
2018-04-19T07:52:04.869Z,22.81
2018-04-19T07:54:33.017Z,22.97
2018-04-19T07:57:01.148Z,23.13
2018-04-19T07:59:29.285Z,23.02
2018-04-19T08:01:57.416Z,23.15
2018-04-19T08:04:25.582Z,23.35
2018-04-19T08:06:53.702Z,23.42
2018-04-19T08:09:21.817Z,23.42
2018-04-19T08:11:49.970Z,23.38
2018-04-19T08:14:18.099Z,23.69
2018-04-19T08:16:46.252Z,23.79
2018-04-19T08:19:14.383Z,23.80
2018-04-19T08:21:42.518Z,23.88
2018-04-19T08:24:10.891Z,23.93
2018-04-19T08:26:39.036Z,23.99
2018-04-19T08:29:07.175Z,24.19
2018-04-19T08:31:35.295Z,24.29
2018-04-19T08:34:03.458Z,24.46
2018-04-19T08:36:31.591Z,24.48
2018-04-19T08:38:59.738Z,24.63
2018-04-19T08:41:27.903Z,24.60
2018-04-19T08:43:56.022Z,24.78
2018-04-19T08:46:24.144Z,24.78
2018-04-19T08:48:52.277Z,24.94
2018-04-19T08:51:20.417Z,24.92
2018-04-19T08:53:48.909Z,25.16
2018-04-19T08:56:17.291Z,25.22
2018-04-19T08:58:45.431Z,25.21
2018-04-19T09:01:13.549Z,25.33
2018-04-19T09:03:41.698Z,25.50
2018-04-19T09:06:09.819Z,25.54
2018-04-19T09:08:37.959Z,25.65
2018-04-19T09:11:06.096Z,25.63
2018-04-19T09:13:34.262Z,25.79
2018-04-19T09:16:02.383Z,25.88
2018-04-19T09:18:30.535Z,25.87
2018-04-19T09:20:58.685Z,25.89
2018-04-19T09:23:26.817Z,25.95
2018-04-19T09:25:54.974Z,26.01
2018-04-19T09:28:23.102Z,26.14
2018-04-19T09:30:51.243Z,26.22
2018-04-19T09:33:19.369Z,26.28
2018-04-19T09:35:50.614Z,26.30
2018-04-19T09:38:18.750Z,26.34
2018-04-19T09:40:46.898Z,26.39
2018-04-19T09:43:15.037Z,26.36
2018-04-19T09:45:43.140Z,26.59
2018-04-19T09:48:11.279Z,26.60
2018-04-19T09:50:39.432Z,26.49
2018-04-19T09:53:07.543Z,26.50
2018-04-19T09:55:35.730Z,26.42
2018-04-19T09:58:09.489Z,26.46
2018-04-19T10:00:43.625Z,26.64
2018-04-19T10:03:17.441Z,26.88
2018-04-19T10:05:47.492Z,26.77
2018-04-19T10:08:15.625Z,26.64
2018-04-19T10:10:43.785Z,26.74
2018-04-19T10:13:12.166Z,26.68
2018-04-19T10:15:40.313Z,26.64
2018-04-19T10:18:08.469Z,26.77
2018-04-19T10:20:36.615Z,26.71
2018-04-19T10:23:04.750Z,27.00
2018-04-19T10:25:32.859Z,27.12
2018-04-19T10:28:01.006Z,27.19
2018-04-19T10:30:32.468Z,27.11
2018-04-19T10:33:00.608Z,27.11
2018-04-19T10:35:28.739Z,27.09
2018-04-19T10:37:56.888Z,27.14
2018-04-19T10:40:25.010Z,27.30
2018-04-19T10:42:53.349Z,27.31
2018-04-19T10:45:21.469Z,27.30
2018-04-19T10:47:50.504Z,27.33
2018-04-19T10:50:18.655Z,27.26
2018-04-19T10:52:46.806Z,27.50
2018-04-19T10:55:14.936Z,27.63
2018-04-19T10:57:43.077Z,27.49
2018-04-19T11:00:11.192Z,27.46
2018-04-19T11:02:39.333Z,27.36
2018-04-19T11:05:07.467Z,27.29
2018-04-19T11:07:35.597Z,27.53
2018-04-19T11:10:03.724Z,27.63
2018-04-19T11:12:31.861Z,27.64
2018-04-19T11:14:59.992Z,27.82
2018-04-19T11:17:28.122Z,27.73
2018-04-19T11:19:56.285Z,27.74
2018-04-19T11:22:24.415Z,27.88
2018-04-19T11:24:52.556Z,27.78
2018-04-19T11:27:20.719Z,27.95
2018-04-19T11:29:48.851Z,28.10
2018-04-19T11:32:17.014Z,28.21
2018-04-19T11:34:45.190Z,28.21
2018-04-19T11:37:13.334Z,28.10
2018-04-19T11:39:41.541Z,28.19
2018-04-19T11:42:09.717Z,28.72
2018-04-19T11:44:39.766Z,28.59
2018-04-19T11:47:07.910Z,28.47
2018-04-19T11:49:36.063Z,28.59
2018-04-19T11:52:04.230Z,28.94
2018-04-19T11:54:32.364Z,29.06
2018-04-19T11:57:00.584Z,29.47
2018-04-19T11:59:28.713Z,29.39
2018-04-19T12:01:56.849Z,29.47
2018-04-19T12:04:24.987Z,29.42
2018-04-19T12:06:53.135Z,29.35
2018-04-19T12:09:21.290Z,29.61
2018-04-19T12:11:49.463Z,29.67
2018-04-19T12:14:17.593Z,29.82
2018-04-19T12:16:47.650Z,30.01
2018-04-19T12:19:15.860Z,30.17
2018-04-19T12:21:43.957Z,29.91
2018-04-19T12:24:12.069Z,29.69
2018-04-19T12:26:40.234Z,29.70
2018-04-19T12:29:08.357Z,29.76
2018-04-19T12:31:36.635Z,29.93
2018-04-19T12:34:04.813Z,29.93
2018-04-19T12:36:32.934Z,30.12
2018-04-19T12:39:01.079Z,30.14
2018-04-19T12:41:29.221Z,30.09
2018-04-19T12:43:57.355Z,30.20
2018-04-19T12:46:25.506Z,30.20
2018-04-19T12:48:53.625Z,30.32
2018-04-19T12:51:21.797Z,30.15
2018-04-19T12:53:49.920Z,30.02
2018-04-19T12:56:18.072Z,30.13
2018-04-19T12:58:46.196Z,30.19
2018-04-19T13:01:14.342Z,30.00
2018-04-19T13:03:42.492Z,29.92
2018-04-19T13:06:10.627Z,30.25
2018-04-19T13:08:38.784Z,30.15
2018-04-19T13:11:06.900Z,30.50
2018-04-19T13:13:35.920Z,30.53
2018-04-19T13:16:04.077Z,30.15
2018-04-19T13:18:32.193Z,30.03
2018-04-19T13:21:00.361Z,30.22
2018-04-19T13:23:28.514Z,30.03
2018-04-19T13:25:56.704Z,29.97
2018-04-19T13:28:24.768Z,29.95
2018-04-19T13:30:52.902Z,30.06
2018-04-19T13:33:21.070Z,30.05
2018-04-19T13:35:49.190Z,29.99
2018-04-19T13:38:17.326Z,29.89
2018-04-19T13:40:45.476Z,29.79
2018-04-19T13:43:13.610Z,29.83
2018-04-19T13:45:41.752Z,29.99
2018-04-19T13:48:10.058Z,30.03
2018-04-19T13:50:38.171Z,30.05
2018-04-19T13:53:06.328Z,29.94
2018-04-19T13:55:34.489Z,29.94
2018-04-19T13:58:02.615Z,29.83
2018-04-19T14:00:30.729Z,29.86
2018-04-19T14:02:58.923Z,29.77
2018-04-19T14:05:27.061Z,29.80
2018-04-19T14:07:55.164Z,29.76
2018-04-19T14:10:23.310Z,29.97
2018-04-19T14:12:51.467Z,30.06
2018-04-19T14:15:19.628Z,29.87
2018-04-19T14:17:47.763Z,29.65
2018-04-19T14:20:15.897Z,29.46
2018-04-19T14:22:44.024Z,29.74
2018-04-19T14:25:12.172Z,29.74
2018-04-19T14:27:40.293Z,29.65
2018-04-19T14:30:08.413Z,29.55
2018-04-19T14:32:36.557Z,29.65
2018-04-19T14:35:04.697Z,29.67
2018-04-19T14:37:32.831Z,29.72
2018-04-19T14:40:00.988Z,29.65
2018-04-19T14:42:29.110Z,29.63
2018-04-19T14:44:57.243Z,29.75
2018-04-19T14:47:25.821Z,29.69
2018-04-19T14:49:53.928Z,29.67
2018-04-19T14:52:22.066Z,29.66
2018-04-19T14:54:50.219Z,29.61
2018-04-19T14:57:18.348Z,29.64
2018-04-19T14:59:46.475Z,29.76
2018-04-19T15:02:14.632Z,29.63
2018-04-19T15:04:42.737Z,29.56
2018-04-19T15:07:10.892Z,29.43
2018-04-19T15:09:39.049Z,29.48
2018-04-19T15:12:07.182Z,29.40
2018-04-19T15:14:35.311Z,29.29
2018-04-19T15:17:03.495Z,29.42
2018-04-19T15:19:31.642Z,29.51
2018-04-19T15:21:59.862Z,29.38
2018-04-19T15:24:27.972Z,29.38
2018-04-19T15:26:56.122Z,29.40
2018-04-19T15:29:24.266Z,29.31
2018-04-19T15:31:52.393Z,29.31
2018-04-19T15:34:20.526Z,29.51
2018-04-19T15:36:49.563Z,29.43
2018-04-19T15:39:17.720Z,29.37
2018-04-19T15:41:45.836Z,29.34
2018-04-19T15:44:13.971Z,29.39
2018-04-19T15:46:42.134Z,29.29
2018-04-19T15:49:10.267Z,29.29
2018-04-19T15:51:38.409Z,29.20
2018-04-19T15:54:06.540Z,29.37
2018-04-19T15:56:34.689Z,29.18
2018-04-19T15:59:02.888Z,29.00
2018-04-19T16:01:30.969Z,29.21
2018-04-19T16:03:59.100Z,29.19
2018-04-19T16:06:27.240Z,29.26
2018-04-19T16:08:55.416Z,29.18
2018-04-19T16:11:23.569Z,29.11
2018-04-19T16:13:51.709Z,29.31
2018-04-19T16:16:19.836Z,29.31
2018-04-19T16:18:47.973Z,29.21
2018-04-19T16:21:16.131Z,29.24
2018-04-19T16:23:44.271Z,29.17
2018-04-19T16:26:12.381Z,29.09
2018-04-19T16:31:08.646Z,28.98
2018-04-19T16:33:36.783Z,28.99
2018-04-19T16:36:04.919Z,28.98
2018-04-19T16:38:33.078Z,29.08
2018-04-19T16:41:01.213Z,29.12
2018-04-19T16:43:29.326Z,28.95
2018-04-19T16:46:01.060Z,28.89
2018-04-19T16:48:29.201Z,28.81
2018-04-19T16:50:57.351Z,28.68
2018-04-19T16:53:25.498Z,28.63
2018-04-19T16:55:53.620Z,28.54
2018-04-19T16:58:21.724Z,28.45
2018-04-19T17:00:49.870Z,28.43
2018-04-19T17:03:18.003Z,28.44
2018-04-19T17:05:46.104Z,28.51
2018-04-19T17:08:14.304Z,28.53
2018-04-19T17:10:42.417Z,28.43
2018-04-19T17:13:10.607Z,28.35
2018-04-19T17:15:38.754Z,28.27
2018-04-19T17:18:06.883Z,28.20
2018-04-19T17:20:34.980Z,28.09
2018-04-19T17:23:03.154Z,28.11
2018-04-19T17:25:32.176Z,28.08
2018-04-19T17:28:00.660Z,27.99
2018-04-19T17:30:32.205Z,27.97
2018-04-19T17:33:00.342Z,27.91
2018-04-19T17:35:28.497Z,27.83
2018-04-19T17:37:56.645Z,27.66
2018-04-19T17:40:24.805Z,27.49
2018-04-19T17:42:52.887Z,27.41
2018-04-19T17:45:21.132Z,27.42
2018-04-19T17:47:49.261Z,27.28
2018-04-19T17:50:17.387Z,27.16
2018-04-19T17:52:45.571Z,27.11
2018-04-19T17:55:13.716Z,26.99
2018-04-19T17:57:41.831Z,26.81
2018-04-19T18:00:09.960Z,26.73
2018-04-19T18:02:39.258Z,26.60
2018-04-19T18:05:07.370Z,26.43
2018-04-19T18:07:35.515Z,26.32
2018-04-19T18:10:03.668Z,26.22
2018-04-19T18:12:31.813Z,26.10
2018-04-19T18:14:59.951Z,25.99
2018-04-19T18:17:28.079Z,25.88
2018-04-19T18:19:56.226Z,25.71
2018-04-19T18:22:24.359Z,25.57
2018-04-19T18:24:52.496Z,25.43
2018-04-19T18:27:20.680Z,25.33
2018-04-19T18:29:48.840Z,25.26
2018-04-19T18:32:16.977Z,25.19
2018-04-19T18:34:45.110Z,25.08
2018-04-19T18:37:13.260Z,24.98
2018-04-19T18:39:41.445Z,24.92
2018-04-19T18:42:09.524Z,24.83
2018-04-19T18:44:41.310Z,24.73
2018-04-19T18:47:09.425Z,24.62
2018-04-19T18:49:37.539Z,24.49
2018-04-19T18:52:05.676Z,24.44
2018-04-19T18:54:33.827Z,24.22
2018-04-19T18:57:02.000Z,24.09
2018-04-19T18:59:30.352Z,24.08
2018-04-19T19:01:58.477Z,23.94
2018-04-19T19:04:26.617Z,23.86
2018-04-19T19:06:54.759Z,23.84
2018-04-19T19:09:22.884Z,23.82
2018-04-19T19:11:51.008Z,23.76
2018-04-19T19:14:32.837Z,23.67
2018-04-19T19:17:01.142Z,23.59
2018-04-19T19:19:41.126Z,23.55
2018-04-19T19:22:09.248Z,23.46
2018-04-19T19:24:37.407Z,23.41
2018-04-19T19:27:05.562Z,23.33
2018-04-19T19:29:33.713Z,23.29
2018-04-19T19:32:01.846Z,23.25
2018-04-19T19:34:30.143Z,23.11
2018-04-19T19:36:58.271Z,23.11
2018-04-19T19:39:26.420Z,23.04
2018-04-19T19:41:54.573Z,22.90
2018-04-19T19:44:22.710Z,22.92
2018-04-19T19:46:50.842Z,22.91
2018-04-19T19:49:18.979Z,22.88
2018-04-19T19:51:47.119Z,22.76
2018-04-19T19:54:15.256Z,22.73
2018-04-19T19:56:46.955Z,22.69
2018-04-19T19:59:15.113Z,22.63
2018-04-19T20:01:43.235Z,22.60
2018-04-19T20:04:11.428Z,22.59
2018-04-19T20:06:39.551Z,22.58
2018-04-19T20:09:07.652Z,22.39
2018-04-19T20:11:35.800Z,22.39
2018-04-19T20:14:04.559Z,22.31
2018-04-19T20:16:32.671Z,22.25
2018-04-19T20:19:00.809Z,22.26
2018-04-19T20:21:28.964Z,22.16
2018-04-19T20:23:57.113Z,22.08
2018-04-19T20:26:25.297Z,22.13
2018-04-19T20:28:53.425Z,22.08
2018-04-19T20:31:21.579Z,22.06
2018-04-19T20:33:49.830Z,22.02
2018-04-19T20:36:17.927Z,21.95
2018-04-19T20:38:46.052Z,21.89
2018-04-19T20:41:14.297Z,21.85
2018-04-19T20:43:42.436Z,21.69
2018-04-19T20:46:10.718Z,21.68
2018-04-19T20:48:38.885Z,21.58
2018-04-19T20:51:06.998Z,21.53
2018-04-19T20:53:35.130Z,21.48
2018-04-19T20:56:03.269Z,21.40
2018-04-19T20:58:31.408Z,21.35
2018-04-19T21:00:59.539Z,21.33
2018-04-19T21:03:27.722Z,21.33
2018-04-19T21:05:55.856Z,21.24
2018-04-19T21:08:23.971Z,21.26
2018-04-19T21:10:52.122Z,21.21
2018-04-19T21:13:20.295Z,21.16
2018-04-19T21:15:48.412Z,21.18
2018-04-19T21:18:16.585Z,21.23
2018-04-19T21:20:44.747Z,21.35
2018-04-19T21:23:12.940Z,21.40
2018-04-19T21:25:41.268Z,21.40
2018-04-19T21:28:09.404Z,21.37
2018-04-19T21:30:37.558Z,21.31
2018-04-19T21:33:05.721Z,21.35
2018-04-19T21:35:33.875Z,21.42
2018-04-19T21:38:02.066Z,21.43
2018-04-19T21:40:30.216Z,21.46
2018-04-19T21:42:58.618Z,21.48
2018-04-19T21:45:26.742Z,21.49
2018-04-19T21:47:55.068Z,21.52
2018-04-19T21:50:23.203Z,21.53
2018-04-19T21:52:51.354Z,21.46
2018-04-19T21:55:19.478Z,21.42
2018-04-19T21:57:47.615Z,21.42
2018-04-19T22:00:19.226Z,21.39
2018-04-19T22:02:47.354Z,21.34
2018-04-19T22:05:15.465Z,21.28
2018-04-19T22:07:43.580Z,21.24
2018-04-19T22:10:11.891Z,21.17
2018-04-19T22:12:40.041Z,21.14
2018-04-19T22:15:08.148Z,21.15
2018-04-19T22:17:36.291Z,21.19
2018-04-19T22:20:04.425Z,21.18
2018-04-19T22:22:32.538Z,21.14
2018-04-19T22:25:00.695Z,21.09
2018-04-19T22:27:28.827Z,21.12
2018-04-19T22:29:56.949Z,21.09
2018-04-19T22:32:25.080Z,21.05
2018-04-19T22:34:53.219Z,20.98
2018-04-19T22:37:21.348Z,20.88
2018-04-19T22:39:50.024Z,20.89
2018-04-19T22:42:18.157Z,20.93
2018-04-19T22:44:46.264Z,20.90
2018-04-19T22:47:14.405Z,20.87
2018-04-19T22:49:42.834Z,20.90
2018-04-19T22:52:10.971Z,20.87
2018-04-19T22:54:39.100Z,20.90
2018-04-19T22:57:07.226Z,20.72
2018-04-19T22:59:35.357Z,20.73
2018-04-19T23:02:03.507Z,20.74
2018-04-19T23:04:31.613Z,20.81
2018-04-19T23:06:59.742Z,20.65
2018-04-19T23:09:28.123Z,20.43
2018-04-19T23:11:56.298Z,20.30
2018-04-19T23:14:24.480Z,20.21
2018-04-19T23:16:52.621Z,20.28
2018-04-19T23:19:20.836Z,20.43
2018-04-19T23:21:48.971Z,20.49
2018-04-19T23:24:17.123Z,20.31
2018-04-19T23:26:49.964Z,20.18
2018-04-19T23:29:18.085Z,20.24
2018-04-19T23:31:46.211Z,20.22
2018-04-19T23:34:14.348Z,20.26
2018-04-19T23:36:42.705Z,20.35
2018-04-19T23:39:10.834Z,20.36
2018-04-19T23:41:38.961Z,20.33
2018-04-19T23:44:07.121Z,20.29
2018-04-19T23:46:35.246Z,20.26
2018-04-19T23:49:03.357Z,20.19
